createdAt,value
2023-05-07T00:01:27.927Z,70.30
2023-05-07T00:03:57.336Z,76.10
2023-05-07T00:06:27.002Z,80.60
2023-05-07T00:08:54.929Z,81.20
2023-05-07T00:11:22.776Z,82.00
2023-05-07T00:13:50.679Z,84.70
2023-05-07T00:16:18.678Z,90.80
2023-05-07T00:18:46.810Z,91.30
2023-05-07T00:21:16.061Z,91.70
2023-05-07T00:23:44.041Z,91.10
2023-05-07T00:26:11.884Z,91.40
2023-05-07T00:28:40.289Z,91.70
2023-05-07T00:31:08.108Z,92.40
2023-05-07T00:33:35.972Z,92.10
2023-05-07T00:36:03.895Z,92.10
2023-05-07T00:38:33.234Z,91.50
2023-05-07T00:41:01.120Z,90.60
2023-05-07T00:43:29.004Z,90.10
2023-05-07T00:45:56.949Z,89.90
2023-05-07T00:48:25.467Z,90.40
2023-05-07T00:50:53.488Z,90.00
2023-05-07T00:53:21.649Z,89.90
2023-05-07T00:55:51.118Z,90.70
2023-05-07T00:58:19.121Z,91.20
2023-05-07T01:00:47.093Z,90.60
2023-05-07T01:03:15.908Z,90.10
2023-05-07T01:05:45.964Z,89.50
2023-05-07T01:08:14.986Z,88.50
2023-05-07T01:10:44.100Z,88.40
2023-05-07T01:13:14.987Z,88.10
2023-05-07T01:15:43.034Z,88.60
2023-05-07T01:18:11.035Z,87.80
2023-05-07T01:20:38.931Z,90.50
2023-05-07T01:23:09.773Z,91.40
2023-05-07T01:25:37.769Z,89.50
2023-05-07T01:28:06.763Z,87.00
2023-05-07T01:30:36.710Z,86.10
2023-05-07T01:33:08.814Z,86.20
2023-05-07T01:35:40.594Z,85.20
2023-05-07T01:38:10.993Z,83.70
2023-05-07T01:40:39.171Z,83.30
2023-05-07T01:43:08.415Z,82.80
2023-05-07T01:45:37.145Z,82.80
2023-05-07T01:48:05.706Z,82.80
2023-05-07T01:50:34.342Z,81.60
2023-05-07T01:53:03.696Z,81.50
2023-05-07T01:55:32.930Z,82.30
2023-05-07T01:58:00.983Z,82.80
2023-05-07T02:00:29.954Z,82.90
2023-05-07T02:02:58.610Z,82.50
2023-05-07T02:05:26.712Z,81.70
2023-05-07T02:07:54.558Z,82.90
2023-05-07T02:10:22.394Z,82.10
2023-05-07T02:12:51.707Z,82.90
2023-05-07T02:15:19.817Z,82.90
2023-05-07T02:18:01.269Z,82.90
2023-05-07T02:20:29.351Z,82.40
2023-05-07T02:22:57.520Z,81.20
2023-05-07T02:25:25.610Z,82.00
2023-05-07T02:27:54.891Z,81.20
2023-05-07T02:30:23.127Z,82.40
2023-05-07T02:32:51.214Z,82.30
2023-05-07T02:35:19.399Z,82.30
2023-05-07T02:37:47.251Z,81.10
2023-05-07T02:40:15.368Z,81.20
2023-05-07T02:42:43.221Z,82.30
2023-05-07T02:45:13.078Z,83.00
2023-05-07T02:47:41.126Z,84.50
2023-05-07T02:50:09.867Z,84.30
2023-05-07T02:52:37.972Z,84.20
2023-05-07T02:55:06.732Z,84.00
2023-05-07T02:57:34.574Z,84.20
2023-05-07T03:00:12.090Z,84.00
2023-05-07T03:02:41.457Z,83.60
2023-05-07T03:05:09.777Z,83.20
2023-05-07T03:07:37.686Z,82.90
2023-05-07T03:10:06.163Z,83.10
2023-05-07T03:12:34.147Z,83.70
2023-05-07T03:15:02.017Z,83.50
2023-05-07T03:17:29.949Z,83.70
2023-05-07T03:19:59.169Z,83.40
2023-05-07T03:22:27.027Z,84.30
2023-05-07T03:24:54.875Z,84.50
2023-05-07T03:27:22.735Z,84.40
2023-05-07T03:29:50.678Z,83.30
2023-05-07T03:32:18.578Z,84.40
2023-05-07T03:34:46.430Z,86.20
2023-05-07T03:37:15.664Z,85.90
2023-05-07T03:39:43.495Z,84.90
2023-05-07T03:42:11.398Z,85.80
2023-05-07T03:44:39.252Z,85.20
2023-05-07T03:47:07.143Z,86.50
2023-05-07T03:49:35.050Z,86.10
2023-05-07T03:52:02.997Z,85.30
2023-05-07T03:54:32.625Z,84.70
2023-05-07T03:57:00.576Z,85.50
2023-05-07T03:59:28.488Z,84.80
2023-05-07T04:01:56.358Z,85.60
2023-05-07T04:04:24.426Z,86.30
2023-05-07T04:06:52.577Z,86.40
2023-05-07T04:09:20.967Z,86.60
2023-05-07T04:11:50.171Z,87.00
2023-05-07T04:14:18.056Z,86.80
2023-05-07T04:16:45.983Z,86.00
2023-05-07T04:19:13.840Z,85.50
2023-05-07T04:21:41.760Z,85.30
2023-05-07T04:24:09.744Z,85.70
2023-05-07T04:26:37.568Z,84.20
2023-05-07T04:29:06.785Z,84.20
2023-05-07T04:31:34.849Z,83.90
2023-05-07T04:34:02.748Z,83.20
2023-05-07T04:36:30.669Z,81.50
2023-05-07T04:38:58.549Z,83.50
2023-05-07T04:41:26.401Z,79.70
2023-05-07T04:43:54.281Z,82.30
2023-05-07T04:46:23.517Z,84.90
2023-05-07T04:48:51.381Z,83.50
2023-05-07T04:51:19.279Z,82.50
2023-05-07T04:53:47.152Z,82.90
2023-05-07T04:56:15.099Z,82.50
2023-05-07T04:58:42.991Z,82.00
2023-05-07T05:01:10.868Z,82.70
2023-05-07T05:03:40.508Z,81.30
2023-05-07T05:06:08.636Z,80.20
2023-05-07T05:08:36.501Z,79.50
2023-05-07T05:11:04.462Z,81.70
2023-05-07T05:13:32.389Z,75.70
2023-05-07T05:16:00.417Z,77.60
2023-05-07T05:18:28.292Z,78.20
2023-05-07T05:20:57.529Z,78.20
2023-05-07T05:23:25.453Z,75.60
2023-05-07T05:25:58.368Z,78.70
2023-05-07T05:28:26.537Z,77.20
2023-05-07T05:30:54.472Z,77.30
2023-05-07T05:33:22.343Z,76.00
2023-05-07T05:35:51.705Z,76.60
2023-05-07T05:38:21.820Z,76.50
2023-05-07T05:40:49.724Z,79.00
2023-05-07T05:43:17.613Z,74.30
2023-05-07T05:45:45.651Z,76.30
2023-05-07T05:48:13.669Z,76.60
2023-05-07T05:50:41.577Z,76.60
2023-05-07T05:53:09.497Z,75.90
2023-05-07T05:55:39.708Z,78.50
2023-05-07T05:58:07.655Z,77.90
2023-05-07T06:00:35.631Z,76.50
2023-05-07T06:03:03.680Z,78.80
2023-05-07T06:05:31.801Z,76.80
2023-05-07T06:07:59.840Z,77.10
2023-05-07T06:10:28.188Z,74.50
2023-05-07T06:12:57.515Z,75.00
2023-05-07T06:15:25.396Z,73.90
2023-05-07T06:17:53.287Z,73.20
2023-05-07T06:20:21.180Z,76.70
2023-05-07T06:22:49.005Z,73.30
2023-05-07T06:25:17.085Z,71.80
2023-05-07T06:27:45.044Z,73.80
2023-05-07T06:30:14.689Z,73.60
2023-05-07T06:32:43.147Z,74.80
2023-05-07T06:35:11.228Z,74.50
2023-05-07T06:37:39.305Z,72.10
2023-05-07T06:40:09.142Z,73.20
2023-05-07T06:42:37.870Z,73.60
2023-05-07T06:45:06.751Z,69.40
2023-05-07T06:47:36.040Z,71.40
2023-05-07T06:50:03.969Z,74.50
2023-05-07T06:52:31.839Z,72.60
2023-05-07T06:54:59.709Z,70.40
2023-05-07T06:57:27.692Z,75.30
2023-05-07T06:59:55.520Z,72.60
2023-05-07T07:02:23.545Z,70.70
2023-05-07T07:04:52.826Z,71.30
2023-05-07T07:07:20.752Z,72.70
2023-05-07T07:09:48.534Z,70.70
2023-05-07T07:12:16.425Z,67.60
2023-05-07T07:14:44.328Z,66.90
2023-05-07T07:17:12.173Z,66.80
2023-05-07T07:19:40.551Z,68.20
2023-05-07T07:22:09.756Z,69.40
2023-05-07T07:24:37.626Z,66.40
2023-05-07T07:27:05.944Z,67.60
2023-05-07T07:29:33.797Z,65.30
2023-05-07T07:32:01.847Z,64.50
2023-05-07T07:34:29.730Z,68.80
2023-05-07T07:36:57.534Z,65.70
2023-05-07T07:39:26.763Z,59.80
2023-05-07T07:41:54.847Z,68.00
2023-05-07T07:44:22.659Z,64.50
2023-05-07T07:46:50.648Z,66.60
2023-05-07T07:49:19.051Z,67.20
2023-05-07T07:51:46.969Z,64.40
2023-05-07T07:54:14.861Z,63.60
2023-05-07T07:56:44.028Z,60.30
2023-05-07T07:59:11.851Z,60.40
2023-05-07T08:01:39.767Z,64.10
2023-05-07T08:04:07.729Z,64.00
2023-05-07T08:06:35.608Z,60.90
2023-05-07T08:09:03.813Z,60.70
2023-05-07T08:11:31.668Z,62.10
2023-05-07T08:14:01.236Z,63.80
2023-05-07T08:16:30.997Z,63.30
2023-05-07T08:18:59.080Z,61.90
2023-05-07T08:21:27.194Z,64.90
2023-05-07T08:23:55.070Z,62.70
2023-05-07T08:26:22.908Z,58.80
2023-05-07T08:28:50.748Z,66.10
2023-05-07T08:31:20.018Z,61.10
2023-05-07T08:33:48.003Z,62.90
2023-05-07T08:36:15.876Z,60.40
2023-05-07T08:38:46.589Z,58.50
2023-05-07T08:41:14.522Z,58.30
2023-05-07T08:43:43.620Z,60.70
2023-05-07T08:46:12.632Z,60.70
2023-05-07T08:48:42.023Z,58.40
2023-05-07T08:51:14.391Z,56.50
2023-05-07T08:53:43.442Z,56.60
2023-05-07T08:56:11.947Z,56.70
2023-05-07T08:58:39.988Z,56.80
2023-05-07T09:01:11.453Z,55.70
2023-05-07T09:03:42.305Z,57.00
2023-05-07T09:06:10.884Z,58.00
2023-05-07T09:08:38.974Z,55.90
2023-05-07T09:11:06.941Z,55.80
2023-05-07T09:13:34.827Z,56.90
2023-05-07T09:16:12.949Z,54.00
2023-05-07T09:18:45.745Z,54.00
2023-05-07T09:21:13.765Z,54.90
2023-05-07T09:23:41.957Z,57.50
2023-05-07T09:26:12.845Z,56.90
2023-05-07T09:28:42.480Z,55.40
2023-05-07T09:31:10.704Z,54.20
2023-05-07T09:33:38.924Z,53.80
2023-05-07T09:36:09.721Z,52.80
2023-05-07T09:38:39.277Z,50.50
2023-05-07T09:41:08.557Z,49.30
2023-05-07T09:43:37.933Z,48.90
2023-05-07T09:46:09.466Z,43.90
2023-05-07T09:48:41.769Z,46.30
2023-05-07T09:51:23.597Z,47.30
2023-05-07T09:53:54.042Z,44.10
2023-05-07T09:56:22.274Z,44.20
2023-05-07T09:58:51.383Z,44.80
2023-05-07T10:01:23.171Z,42.60
2023-05-07T10:03:53.368Z,43.60
2023-05-07T10:06:23.274Z,47.40
2023-05-07T10:08:52.828Z,42.60
2023-05-07T10:11:21.510Z,42.30
2023-05-07T10:13:50.357Z,37.80
2023-05-07T10:16:19.109Z,38.30
2023-05-07T10:18:48.299Z,37.60
2023-05-07T10:21:19.159Z,41.30
2023-05-07T10:23:52.658Z,39.90
2023-05-07T10:26:24.189Z,38.40
2023-05-07T10:28:58.248Z,36.00
2023-05-07T10:31:49.702Z,38.10
2023-05-07T10:34:22.508Z,38.20
2023-05-07T10:36:51.460Z,37.80
2023-05-07T10:39:22.670Z,37.50
2023-05-07T10:41:50.973Z,40.20
2023-05-07T10:44:29.670Z,36.70
2023-05-07T10:47:11.064Z,38.80
2023-05-07T10:49:59.763Z,39.90
2023-05-07T10:52:28.004Z,40.80
2023-05-07T10:55:26.368Z,39.30
2023-05-07T10:57:54.530Z,35.20
2023-05-07T11:00:45.498Z,35.40
2023-05-07T11:03:13.666Z,34.90
2023-05-07T11:05:41.747Z,33.50
2023-05-07T11:08:10.327Z,33.30
2023-05-07T11:10:53.194Z,36.30
2023-05-07T11:13:36.556Z,38.60
2023-05-07T11:16:05.472Z,34.60
2023-05-07T11:18:49.360Z,33.80
2023-05-07T11:21:34.444Z,36.00
2023-05-07T11:24:03.088Z,34.20
2023-05-07T11:26:42.978Z,36.60
2023-05-07T11:29:13.384Z,35.50
2023-05-07T11:31:41.574Z,39.20
2023-05-07T11:34:10.826Z,35.80
2023-05-07T11:36:44.735Z,39.00
2023-05-07T11:39:26.945Z,37.00
2023-05-07T11:41:56.300Z,33.60
2023-05-07T11:44:24.299Z,34.10
2023-05-07T11:46:52.375Z,34.10
2023-05-07T11:49:20.909Z,31.80
2023-05-07T11:51:48.878Z,34.30
2023-05-07T11:54:19.795Z,32.10
2023-05-07T11:56:48.421Z,33.70
2023-05-07T11:59:21.082Z,28.80
2023-05-07T12:01:49.693Z,35.00
2023-05-07T12:04:22.484Z,32.00
2023-05-07T12:06:51.957Z,31.10
2023-05-07T12:09:19.881Z,30.50
2023-05-07T12:11:48.710Z,29.80
2023-05-07T12:14:17.768Z,30.70
2023-05-07T12:16:47.396Z,29.90
2023-05-07T12:19:16.658Z,31.40
2023-05-07T12:21:44.572Z,33.40
2023-05-07T12:24:12.503Z,34.20
2023-05-07T12:26:41.740Z,31.90
2023-05-07T12:29:09.714Z,35.80
2023-05-07T12:31:37.721Z,32.90
2023-05-07T12:34:06.999Z,34.00
2023-05-07T12:36:40.346Z,34.90
2023-05-07T12:39:09.665Z,31.40
2023-05-07T12:41:55.543Z,31.50
2023-05-07T12:44:24.787Z,34.90
2023-05-07T12:46:53.527Z,35.50
2023-05-07T12:49:25.194Z,34.00
2023-05-07T12:51:53.365Z,31.90
2023-05-07T12:54:31.350Z,32.20
2023-05-07T12:57:03.649Z,33.00
2023-05-07T12:59:35.495Z,33.90
2023-05-07T13:02:03.713Z,33.50
2023-05-07T13:04:33.193Z,34.20
2023-05-07T13:07:01.469Z,32.20
2023-05-07T13:09:30.061Z,34.90
2023-05-07T13:12:00.973Z,35.10
2023-05-07T13:14:28.910Z,32.60
2023-05-07T13:16:56.767Z,30.80
2023-05-07T13:19:24.602Z,32.50
2023-05-07T13:21:53.844Z,29.90
2023-05-07T13:24:21.789Z,33.30
2023-05-07T13:26:49.620Z,33.60
2023-05-07T13:29:17.576Z,33.20
2023-05-07T13:31:46.042Z,32.60
2023-05-07T13:34:15.148Z,30.00
2023-05-07T13:36:43.044Z,31.00
2023-05-07T13:39:12.332Z,30.00
2023-05-07T13:41:40.347Z,32.00
2023-05-07T13:44:08.289Z,33.90
2023-05-07T13:46:36.433Z,31.10
2023-05-07T13:49:04.348Z,31.70
2023-05-07T13:51:32.502Z,32.00
2023-05-07T13:54:00.640Z,31.60
2023-05-07T13:56:32.344Z,32.80
2023-05-07T13:59:01.072Z,31.70
2023-05-07T14:01:29.420Z,33.70
2023-05-07T14:03:58.723Z,35.50
2023-05-07T14:06:26.630Z,34.90
2023-05-07T14:08:54.523Z,33.20
2023-05-07T14:11:22.538Z,33.10
2023-05-07T14:13:51.830Z,33.20
2023-05-07T14:16:19.717Z,30.10
2023-05-07T14:18:47.741Z,33.20
2023-05-07T14:21:15.684Z,32.80
2023-05-07T14:23:43.665Z,33.00
2023-05-07T14:26:11.535Z,32.40
2023-05-07T14:28:40.544Z,34.40
2023-05-07T14:31:10.852Z,35.10
2023-05-07T14:33:41.057Z,34.80
2023-05-07T14:36:09.869Z,34.00
2023-05-07T14:38:37.776Z,35.50
2023-05-07T14:41:05.848Z,34.20
2023-05-07T14:43:33.730Z,34.60
2023-05-07T14:46:01.669Z,35.70
2023-05-07T14:48:30.907Z,35.80
2023-05-07T14:50:58.827Z,33.20
2023-05-07T14:53:26.732Z,33.50
2023-05-07T14:55:54.725Z,33.70
2023-05-07T14:58:22.560Z,34.80
2023-05-07T15:00:50.751Z,36.30
2023-05-07T15:03:18.955Z,34.10
2023-05-07T15:05:48.231Z,31.90
2023-05-07T15:08:16.123Z,34.10
2023-05-07T15:10:44.087Z,34.70
2023-05-07T15:13:15.791Z,34.40
2023-05-07T15:15:44.996Z,34.20
2023-05-07T15:18:13.057Z,34.90
2023-05-07T15:20:41.544Z,36.40
2023-05-07T15:23:13.129Z,38.10
2023-05-07T15:25:41.529Z,35.30
2023-05-07T15:28:09.572Z,34.00
2023-05-07T15:30:37.763Z,34.90
2023-05-07T15:33:06.488Z,35.00
2023-05-07T15:35:34.653Z,35.50
2023-05-07T15:38:03.984Z,33.20
2023-05-07T15:40:33.842Z,34.50
2023-05-07T15:43:01.751Z,34.90
2023-05-07T15:45:30.277Z,34.10
2023-05-07T15:47:58.225Z,35.30
2023-05-07T15:50:26.150Z,38.60
2023-05-07T15:52:54.056Z,36.60
2023-05-07T15:55:22.126Z,34.40
2023-05-07T15:57:52.396Z,35.50
2023-05-07T16:00:20.804Z,36.20
2023-05-07T16:02:48.880Z,36.20
2023-05-07T16:05:16.897Z,34.50
2023-05-07T16:07:45.075Z,33.70
2023-05-07T16:10:13.125Z,35.70
2023-05-07T16:12:41.124Z,33.60
2023-05-07T16:15:11.480Z,33.70
2023-05-07T16:17:39.504Z,34.20
2023-05-07T16:20:09.196Z,34.10
2023-05-07T16:22:37.748Z,33.90
2023-05-07T16:25:06.457Z,34.20
2023-05-07T16:27:34.300Z,34.50
2023-05-07T16:30:04.563Z,33.70
2023-05-07T16:32:33.821Z,35.80
2023-05-07T16:35:01.899Z,34.50
2023-05-07T16:37:30.030Z,35.00
2023-05-07T16:39:59.773Z,36.10
2023-05-07T16:42:27.656Z,34.30
2023-05-07T16:44:55.636Z,34.60
2023-05-07T16:47:23.531Z,36.20
2023-05-07T16:49:53.036Z,33.60
2023-05-07T16:52:21.247Z,33.10
2023-05-07T16:54:49.324Z,34.80
2023-05-07T16:57:17.223Z,34.30
2023-05-07T16:59:45.023Z,35.30
2023-05-07T17:02:13.275Z,35.10
2023-05-07T17:04:41.140Z,35.40
2023-05-07T17:07:10.439Z,36.10
2023-05-07T17:09:38.362Z,36.90
2023-05-07T17:12:06.731Z,38.10
2023-05-07T17:14:34.532Z,38.50
2023-05-07T17:17:02.358Z,38.20
2023-05-07T17:19:30.218Z,38.50
2023-05-07T17:21:58.300Z,39.90
2023-05-07T17:24:27.612Z,39.20
2023-05-07T17:26:55.496Z,39.60
2023-05-07T17:29:23.363Z,39.70
2023-05-07T17:31:51.278Z,39.80
2023-05-07T17:34:19.174Z,40.60
2023-05-07T17:36:47.020Z,39.90
2023-05-07T17:39:14.866Z,39.40
2023-05-07T17:41:44.109Z,40.70
2023-05-07T17:44:11.955Z,40.60
2023-05-07T17:46:39.862Z,40.80
2023-05-07T17:49:07.683Z,41.00
2023-05-07T17:51:49.794Z,40.80
2023-05-07T17:54:21.552Z,40.90
2023-05-07T17:56:50.808Z,40.80
2023-05-07T17:59:18.662Z,41.30
2023-05-07T18:01:46.541Z,41.50
2023-05-07T18:04:14.711Z,41.60
2023-05-07T18:06:42.772Z,42.40
2023-05-07T18:09:10.768Z,42.20
2023-05-07T18:11:38.638Z,41.60
2023-05-07T18:14:07.803Z,42.10
2023-05-07T18:16:35.828Z,41.50
2023-05-07T18:19:03.799Z,42.60
2023-05-07T18:21:31.690Z,41.50
2023-05-07T18:23:59.543Z,40.90
2023-05-07T18:26:27.727Z,41.10
2023-05-07T18:28:55.602Z,40.90
2023-05-07T18:31:24.862Z,40.40
2023-05-07T18:33:54.279Z,40.80
2023-05-07T18:36:22.144Z,41.30
2023-05-07T18:38:49.966Z,40.60
2023-05-07T18:41:17.842Z,40.60
2023-05-07T18:43:45.689Z,40.50
2023-05-07T18:46:15.815Z,41.10
2023-05-07T18:48:45.059Z,41.10
2023-05-07T18:51:12.890Z,40.90
2023-05-07T18:53:40.776Z,40.90
2023-05-07T18:56:08.803Z,41.10
2023-05-07T18:58:36.924Z,41.70
2023-05-07T19:01:08.123Z,42.40
2023-05-07T19:03:36.485Z,42.10
2023-05-07T19:06:06.414Z,42.30
2023-05-07T19:08:34.367Z,42.60
2023-05-07T19:11:02.878Z,42.20
2023-05-07T19:13:30.828Z,42.90
2023-05-07T19:15:58.705Z,42.90
2023-05-07T19:18:26.684Z,43.70
2023-05-07T19:20:55.314Z,42.70
2023-05-07T19:23:24.845Z,43.00
2023-05-07T19:25:52.688Z,43.10
2023-05-07T19:28:20.954Z,43.60
2023-05-07T19:30:49.847Z,43.80
2023-05-07T19:33:18.031Z,43.00
2023-05-07T19:35:46.090Z,43.90
2023-05-07T19:38:13.954Z,43.60
2023-05-07T19:40:43.170Z,43.90
2023-05-07T19:43:11.078Z,43.40
2023-05-07T19:45:42.874Z,44.00
2023-05-07T19:48:10.843Z,44.40
2023-05-07T19:50:38.696Z,44.30
2023-05-07T19:53:06.643Z,44.90
2023-05-07T19:55:34.697Z,45.40
2023-05-07T19:58:03.865Z,45.10
2023-05-07T20:00:33.417Z,44.90
2023-05-07T20:03:01.371Z,45.40
2023-05-07T20:05:29.234Z,46.10
2023-05-07T20:07:57.279Z,45.90
2023-05-07T20:10:25.123Z,45.40
2023-05-07T20:12:52.976Z,46.10
2023-05-07T20:15:23.374Z,45.20
2023-05-07T20:17:51.288Z,45.90
2023-05-07T20:20:19.302Z,45.50
2023-05-07T20:22:47.198Z,45.90
2023-05-07T20:25:15.065Z,45.70
2023-05-07T20:27:42.927Z,45.80
2023-05-07T20:30:12.001Z,45.80
2023-05-07T20:32:41.429Z,45.80
2023-05-07T20:35:09.889Z,45.80
2023-05-07T20:37:37.873Z,45.80
2023-05-07T20:40:07.119Z,45.30
2023-05-07T20:42:35.357Z,44.30
2023-05-07T20:45:04.184Z,45.50
2023-05-07T20:47:33.017Z,45.70
2023-05-07T20:50:02.221Z,45.60
2023-05-07T20:52:30.070Z,45.50
2023-05-07T20:54:57.924Z,45.60
2023-05-07T20:57:25.822Z,45.50
2023-05-07T20:59:53.683Z,45.40
2023-05-07T21:02:21.561Z,45.30
2023-05-07T21:04:51.401Z,45.90
2023-05-07T21:07:20.667Z,45.60
2023-05-07T21:09:48.577Z,45.80
2023-05-07T21:12:16.394Z,46.10
2023-05-07T21:14:44.261Z,46.40
2023-05-07T21:17:12.071Z,46.60
2023-05-07T21:19:40.351Z,46.70
2023-05-07T21:22:08.246Z,47.30
2023-05-07T21:24:37.434Z,47.20
2023-05-07T21:27:05.463Z,47.20
2023-05-07T21:29:33.333Z,48.40
2023-05-07T21:32:03.483Z,47.80
2023-05-07T21:34:31.438Z,47.40
2023-05-07T21:36:59.945Z,47.80
2023-05-07T21:39:27.801Z,48.00
2023-05-07T21:41:57.536Z,48.30
2023-05-07T21:44:25.345Z,48.20
2023-05-07T21:46:53.226Z,48.00
2023-05-07T21:49:21.089Z,48.60
2023-05-07T21:51:48.929Z,49.10
2023-05-07T21:54:16.839Z,48.70
2023-05-07T21:56:45.492Z,49.50
2023-05-07T21:59:14.745Z,49.00
2023-05-07T22:01:42.636Z,49.00
2023-05-07T22:04:11.068Z,49.60
2023-05-07T22:06:39.011Z,49.60
2023-05-07T22:09:07.839Z,49.00
2023-05-07T22:11:35.698Z,50.20
2023-05-07T22:14:03.616Z,49.40
2023-05-07T22:16:32.829Z,50.00
2023-05-07T22:19:00.736Z,50.70
2023-05-07T22:21:28.575Z,50.10
2023-05-07T22:23:56.464Z,51.20
2023-05-07T22:26:24.293Z,51.20
2023-05-07T22:28:52.113Z,51.20
2023-05-07T22:31:19.949Z,51.70
2023-05-07T22:33:49.170Z,52.40
2023-05-07T22:36:17.001Z,51.40
2023-05-07T22:38:44.828Z,51.20
2023-05-07T22:41:12.651Z,52.80
2023-05-07T22:43:40.506Z,52.60
2023-05-07T22:46:08.445Z,52.70
2023-05-07T22:48:36.290Z,52.90
2023-05-07T22:51:05.547Z,52.60
2023-05-07T22:53:33.475Z,53.20
2023-05-07T22:56:06.206Z,51.80
2023-05-07T22:58:34.168Z,52.70
2023-05-07T23:01:02.369Z,52.90
2023-05-07T23:03:30.604Z,53.80
2023-05-07T23:05:58.441Z,52.70
2023-05-07T23:08:27.620Z,52.10
2023-05-07T23:10:55.441Z,52.80
2023-05-07T23:13:23.387Z,52.90
2023-05-07T23:15:51.770Z,53.00
2023-05-07T23:18:19.822Z,52.60
2023-05-07T23:20:47.691Z,53.00
2023-05-07T23:23:15.537Z,53.50
2023-05-07T23:25:44.710Z,53.30
2023-05-07T23:28:12.518Z,53.00
2023-05-07T23:30:41.486Z,53.40
2023-05-07T23:33:09.409Z,52.30
2023-05-07T23:35:37.277Z,52.40
2023-05-07T23:38:05.104Z,53.40
2023-05-07T23:40:32.905Z,53.40
2023-05-07T23:43:02.113Z,53.30
2023-05-07T23:45:29.966Z,53.90
2023-05-07T23:47:57.878Z,53.30
2023-05-07T23:50:26.073Z,54.10
2023-05-07T23:52:53.921Z,54.10
2023-05-07T23:55:21.913Z,54.70
2023-05-07T23:57:49.794Z,54.50
